Time;durP1;ratioP1;P1;durP2;ratioP2;P2;SDS_P1;SDS_P2;PMS_P1;PMS_P2;Temp;Humidity;BMP_temperature;BMP_pressure;BME280_temperature;BME280_humidity;BME280_pressure;Samples;Min_cycle;Max_cycle;Signal;HPM_P1;HPM_P2
2022/09/30 00:01:51;;;;;;;;;;;14.30;79.70;;;-151.14;100.00;62537.16;4227106;33;19994;-81
2022/09/30 00:04:23;;;;;;;;;;;14.30;80.00;;;-151.14;100.00;62537.16;4203832;34;19910;-81
2022/09/30 00:06:53;;;;;;;;;;;14.30;79.80;;;-151.14;100.00;62537.16;4203667;34;19903;-82
2022/09/30 00:09:21;;;;;;;;;;;14.30;79.80;;;-151.14;100.00;62537.16;4180307;34;19922;-82
2022/09/30 00:11:50;;;;;;;;;;;14.30;79.60;;;-151.14;100.00;62537.16;4203531;34;19996;-81
2022/09/30 00:14:20;;;;;;;;;;;14.30;79.60;;;-151.14;100.00;62537.16;4203498;34;19903;-81
2022/09/30 00:16:49;;;;;;;;;;;14.30;79.60;;;-151.14;100.00;62537.16;4180763;34;19910;-81
2022/09/30 00:19:17;;;;;;;;;;;14.30;79.90;;;-151.14;100.00;62537.16;4180178;34;19910;-81
2022/09/30 00:21:47;;;;;;;;;;;14.30;79.70;;;-151.14;100.00;62537.16;4180600;34;19903;-81
2022/09/30 00:24:16;;;;;;;;;;;14.30;79.60;;;-151.14;100.00;62537.16;4226794;33;19903;-82
2022/09/30 00:26:44;;;;;;;;;;;14.30;79.60;;;-151.14;100.00;62537.16;4204301;34;19910;-81
2022/09/30 00:29:13;;;;;;;;;;;14.30;79.50;;;-151.14;100.00;62537.16;4202960;34;19911;-81
2022/09/30 00:31:41;;;;;;;;;;;14.20;79.40;;;-151.14;100.00;62537.16;4226754;33;19911;-81
2022/09/30 00:34:10;;;;;;;;;;;14.30;79.50;;;-151.14;100.00;62537.16;4203343;34;20003;-81
2022/09/30 00:36:43;;;;;;;;;;;14.30;79.60;;;-151.14;100.00;62537.16;4180132;34;20258;-81
2022/09/30 00:39:14;;;;;;;;;;;14.20;79.40;;;-151.14;100.00;62537.16;4202865;34;19977;-81
2022/09/30 00:41:43;;;;;;;;;;;14.20;79.60;;;-151.14;100.00;62537.16;4203280;34;19910;-82
2022/09/30 00:44:49;;;;;;;;;;;14.30;79.70;;;-151.14;100.00;62537.16;4226638;33;20003;-82
2022/09/30 00:47:40;;;;;;;;;;;14.20;79.50;;;-151.14;100.00;62537.16;4203157;34;19903;-81
2022/09/30 00:50:25;;;;;;;;;;;14.30;79.60;;;-151.14;100.00;62537.16;4203275;34;19910;-81
2022/09/30 00:52:59;;;;;;;;;;;14.20;80.50;;;-151.14;100.00;62537.16;4203318;34;19903;-81
2022/09/30 00:55:34;;;;;;;;;;;14.30;79.80;;;-151.14;100.00;62537.16;4179735;34;19914;-81
2022/09/30 00:58:04;;;;;;;;;;;14.30;79.60;;;-151.14;100.00;62537.16;4202814;34;19980;-81
2022/09/30 01:00:32;;;;;;;;;;;14.20;79.60;;;-151.14;100.00;62537.16;4204041;34;20010;-81
2022/09/30 01:03:01;;;;;;;;;;;14.30;79.90;;;-151.14;100.00;62537.16;4202931;34;19910;-81
2022/09/30 01:05:30;;;;;;;;;;;14.30;79.70;;;-151.14;100.00;62537.16;4204020;34;19911;-81
2022/09/30 01:07:58;;;;;;;;;;;14.20;79.70;;;-151.14;100.00;62537.16;4227714;33;20218;-82
2022/09/30 01:10:27;;;;;;;;;;;14.20;79.50;;;-151.14;100.00;62537.16;4231029;33;19910;-82
2022/09/30 01:12:57;;;;;;;;;;;14.20;79.50;;;-151.14;100.00;62537.16;4231018;33;20126;-81
2022/09/30 01:15:35;;;;;;;;;;;14.30;79.70;;;-151.14;100.00;62537.16;4230881;33;19909;-81
2022/09/30 01:18:07;;;;;;;;;;;14.30;79.50;;;-151.14;100.00;62537.16;4230518;33;19910;-81
2022/09/30 01:21:02;;;;;;;;;;;14.30;79.40;;;-151.14;100.00;62537.16;4230925;33;19909;-81
2022/09/30 01:24:21;;;;;;;;;;;14.20;79.40;;;-151.14;100.00;62537.16;4207586;33;19902;-81
2022/09/30 01:27:07;;;;;;;;;;;14.20;79.60;;;-151.14;100.00;62537.16;4203858;33;20202;-81
2022/09/30 01:30:13;;;;;;;;;;;14.30;79.70;;;-151.14;100.00;62537.16;4230484;33;20417;-81
2022/09/30 01:32:57;;;;;;;;;;;14.30;79.60;;;-151.14;100.00;62537.16;4207554;33;19995;-81
2022/09/30 01:35:32;;;;;;;;;;;14.30;79.70;;;-151.14;100.00;62537.16;4230656;33;19910;-81
2022/09/30 01:38:05;;;;;;;;;;;14.30;79.50;;;-151.14;100.00;62537.16;4231098;33;19903;-81
2022/09/30 01:40:41;;;;;;;;;;;14.20;79.40;;;-151.14;100.00;62537.16;4230239;33;23180;-81
2022/09/30 01:43:12;;;;;;;;;;;14.20;79.20;;;-151.14;100.00;62537.16;4230923;33;19903;-81
2022/09/30 01:45:44;;;;;;;;;;;14.20;79.20;;;-151.14;100.00;62537.16;4207335;33;19903;-81
2022/09/30 01:48:18;;;;;;;;;;;14.20;79.20;;;18.08;100.00;62537.16;4186443;34;19910;-81
2022/09/30 01:50:49;;;;;;;;;;;14.20;79.40;;;-151.14;100.00;62537.16;4179829;34;19918;-81
2022/09/30 01:53:22;;;;;;;;;;;14.20;79.50;;;-151.14;100.00;62537.16;4202738;34;20326;-81
2022/09/30 01:55:53;;;;;;;;;;;14.20;79.40;;;-151.14;100.00;62537.16;4179637;34;20130;-81
2022/09/30 01:58:26;;;;;;;;;;;14.20;79.30;;;-151.14;100.00;62537.16;4202677;34;20249;-81
2022/09/30 02:00:57;;;;;;;;;;;14.20;79.40;;;-151.14;100.00;62537.16;4202616;34;19910;-81
2022/09/30 02:03:30;;;;;;;;;;;14.20;79.20;;;-151.14;100.00;62537.16;4179528;34;19911;-81
2022/09/30 02:06:02;;;;;;;;;;;14.20;79.20;;;-151.14;100.00;62537.16;4202876;34;20009;-81
2022/09/30 02:08:34;;;;;;;;;;;14.20;79.30;;;-151.14;100.00;62537.16;4201110;33;19902;-81
2022/09/30 02:11:05;;;;;;;;;;;14.20;79.40;;;-151.14;100.00;62537.16;4232724;33;20006;-81
2022/09/30 02:13:38;;;;;;;;;;;14.20;79.40;;;-151.14;100.00;62537.16;4232905;33;20004;-81
2022/09/30 02:16:12;;;;;;;;;;;14.20;79.20;;;-151.14;100.00;62537.16;4232895;33;19966;-81
2022/09/30 02:18:43;;;;;;;;;;;14.20;79.40;;;-151.14;100.00;62537.16;4233345;33;20006;-81
2022/09/30 02:21:13;;;;;;;;;;;14.20;79.40;;;-151.14;100.00;62537.16;4209554;33;20298;-81
2022/09/30 02:23:42;;;;;;;;;;;14.20;79.40;;;-151.14;100.00;62537.16;4232837;33;20138;-81
2022/09/30 02:26:15;;;;;;;;;;;14.20;79.20;;;-151.14;100.00;62537.16;4232832;33;19910;-81
2022/09/30 02:28:45;;;;;;;;;;;14.20;79.50;;;-151.14;100.00;62537.16;4232155;33;20003;-81
2022/09/30 02:31:14;;;;;;;;;;;14.20;79.20;;;-151.14;100.00;62537.16;4209509;33;20002;-81
2022/09/30 02:33:47;;;;;;;;;;;14.20;79.20;;;-151.14;100.00;62537.16;4232961;33;19942;-81
2022/09/30 02:36:19;;;;;;;;;;;14.20;79.20;;;-151.14;100.00;62537.16;4261392;28;19902;-86
2022/09/30 02:38:49;;;;;;;;;;;14.20;79.30;;;-151.14;100.00;62537.16;4236260;33;20128;-85
2022/09/30 02:41:20;;;;;;;;;;;14.20;79.30;;;-151.14;100.00;62537.16;4236812;33;19998;-85
2022/09/30 02:43:49;;;;;;;;;;;14.20;79.40;;;-151.14;100.00;62537.16;4260915;33;20001;-85
2022/09/30 02:46:23;;;;;;;;;;;14.20;79.40;;;-151.14;100.00;62537.16;4260909;33;19962;-85
2022/09/30 02:48:58;;;;;;;;;;;14.20;79.20;;;-151.14;100.00;62537.16;4260188;33;19903;-86
2022/09/30 02:51:31;;;;;;;;;;;14.20;79.40;;;-151.14;100.00;62537.16;4237176;33;19902;-85
2022/09/30 02:54:04;;;;;;;;;;;14.20;79.20;;;-151.14;100.00;62537.16;4260875;33;20232;-86
2022/09/30 02:56:38;;;;;;;;;;;14.20;79.30;;;-151.14;100.00;62537.16;4261619;33;19909;-85
2022/09/30 02:59:07;;;;;;;;;;;14.20;79.40;;;-151.14;100.00;62537.16;4236696;33;20136;-85
2022/09/30 03:01:40;;;;;;;;;;;14.20;79.40;;;-151.14;100.00;62537.16;4237139;33;19909;-86
2022/09/30 03:04:12;;;;;;;;;;;14.20;79.40;;;-151.14;100.00;62537.16;4261692;33;19936;-85
2022/09/30 03:06:41;;;;;;;;;;;14.20;79.50;;;-151.14;100.00;62537.16;4260591;33;19909;-86
2022/09/30 03:09:09;;;;;;;;;;;14.20;79.40;;;-151.14;100.00;62537.16;4259845;33;19909;-85
2022/09/30 03:11:38;;;;;;;;;;;14.20;79.50;;;-151.14;100.00;62537.16;4237124;33;19903;-85
2022/09/30 03:14:35;;;;;;;;;;;14.20;79.20;;;-151.14;100.00;62537.16;4260547;33;19909;-86
2022/09/30 03:17:28;;;;;;;;;;;14.20;79.20;;;-151.14;100.00;62537.16;4236517;33;20001;-85
2022/09/30 03:20:22;;;;;;;;;;;14.20;79.40;;;-151.14;100.00;62537.16;4236994;33;19902;-86
2022/09/30 03:23:19;;;;;;;;;;;14.10;79.80;;;-151.14;100.00;62537.16;4260421;33;19909;-85
2022/09/30 03:25:53;;;;;;;;;;;14.10;79.50;;;-151.14;100.00;62537.16;4236737;33;19909;-86
2022/09/30 03:28:25;;;;;;;;;;;14.20;79.30;;;-151.14;100.00;62537.16;4236221;33;19909;-86
2022/09/30 03:31:02;;;;;;;;;;;14.20;79.30;;;-151.14;100.00;62537.16;4236701;33;19909;-85
2022/09/30 03:33:38;;;;;;;;;;;14.10;79.30;;;-151.14;100.00;62537.16;4236727;33;19910;-85
2022/09/30 03:36:10;;;;;;;;;;;14.10;79.20;;;-151.14;100.00;62537.16;4236681;33;20129;-85
2022/09/30 03:38:44;;;;;;;;;;;14.20;79.40;;;-151.14;100.00;62537.16;4259766;33;19902;-85
2022/09/30 03:41:17;;;;;;;;;;;14.10;79.30;;;-151.14;100.00;62537.16;4260298;33;19902;-85
2022/09/30 03:43:48;;;;;;;;;;;14.10;79.50;;;-151.14;100.00;62537.16;4261109;33;19986;-85
2022/09/30 03:46:21;;;;;;;;;;;14.20;79.40;;;-151.14;100.00;62537.16;4236248;33;20213;-85
2022/09/30 03:48:51;;;;;;;;;;;14.20;79.50;;;-151.14;100.00;62537.16;4260475;33;20369;-85
2022/09/30 03:51:21;;;;;;;;;;;14.10;79.60;;;-151.14;100.00;62537.16;4236583;33;20141;-85
2022/09/30 03:53:49;;;;;;;;;;;14.10;79.30;;;-151.14;100.00;62537.16;4236613;33;19908;-85
2022/09/30 03:56:25;;;;;;;;;;;14.10;79.60;;;-151.14;100.00;62537.16;4236363;33;19902;-85
2022/09/30 03:58:54;;;;;;;;;;;14.10;79.70;;;-151.14;100.00;62537.16;4259422;33;19906;-85
2022/09/30 04:01:22;;;;;;;;;;;14.10;79.70;;;-151.14;100.00;62537.16;4236617;33;19917;-85
2022/09/30 04:03:51;;;;;;;;;;;14.10;79.60;;;-151.14;100.00;62537.16;4237110;33;19985;-85
2022/09/30 04:06:22;;;;;;;;;;;14.10;79.40;;;-151.14;100.00;62537.16;4237745;33;19902;-85
2022/09/30 04:08:52;;;;;;;;;;;14.10;79.70;;;-151.14;100.00;62537.16;4235754;33;20236;-86
2022/09/30 04:11:21;;;;;;;;;;;14.10;79.70;;;-151.14;100.00;62537.16;4236407;33;20001;-85
2022/09/30 04:13:49;;;;;;;;;;;14.10;79.40;;;-151.14;100.00;62537.16;4259882;33;20006;-86
2022/09/30 04:16:18;;;;;;;;;;;14.10;79.50;;;-151.14;100.00;62537.16;4259851;33;20223;-85
2022/09/30 04:18:46;;;;;;;;;;;14.10;79.60;;;-151.14;100.00;62537.16;4259428;33;20297;-86
2022/09/30 04:21:15;;;;;;;;;;;14.10;79.40;;;-151.14;100.00;62537.16;4259756;33;20236;-86
2022/09/30 04:23:45;;;;;;;;;;;14.10;79.30;;;-151.14;100.00;62537.16;4236225;33;20133;-85
2022/09/30 04:26:15;;;;;;;;;;;14.10;79.40;;;-151.14;100.00;62537.16;4259513;33;19902;-85
2022/09/30 04:28:43;;;;;;;;;;;14.10;79.50;;;18.08;100.00;62537.16;4235012;33;20235;-85
2022/09/30 04:31:12;;;;;;;;;;;14.10;79.30;;;-151.14;100.00;62537.16;4236108;33;19902;-86
2022/09/30 04:33:40;;;;;;;;;;;14.10;79.50;;;-151.14;100.00;62537.16;4236130;33;20148;-85
2022/09/30 04:36:09;;;;;;;;;;;14.10;79.40;;;-151.14;100.00;62537.16;4259508;33;20016;-86
2022/09/30 04:38:38;;;;;;;;;;;14.10;80.30;;;-151.14;100.00;62537.16;4235446;33;19997;-85
2022/09/30 04:41:08;;;;;;;;;;;14.10;79.40;;;-151.14;100.00;62537.16;4260624;33;20002;-85
2022/09/30 04:43:37;;;;;;;;;;;14.10;79.40;;;-151.14;100.00;62537.16;4235972;33;19902;-85
2022/09/30 04:46:06;;;;;;;;;;;14.10;79.40;;;-151.14;100.00;62537.16;4259536;33;19910;-85
2022/09/30 04:48:35;;;;;;;;;;;14.10;79.20;;;-151.14;100.00;62537.16;4235456;33;19969;-85
2022/09/30 04:51:03;;;;;;;;;;;14.10;79.20;;;-151.14;100.00;62537.16;4235856;33;19902;-85
2022/09/30 04:53:33;;;;;;;;;;;14.10;79.20;;;-151.14;100.00;62537.16;4259504;33;19902;-86
2022/09/30 04:56:02;;;;;;;;;;;14.10;79.20;;;-151.14;100.00;62537.16;4260272;33;19917;-85
2022/09/30 04:58:32;;;;;;;;;;;14.10;79.20;;;-151.14;100.00;62537.16;4235426;33;19902;-85
2022/09/30 05:01:02;;;;;;;;;;;14.10;79.10;;;-151.14;100.00;62537.16;4235788;33;20117;-85
2022/09/30 05:03:30;;;;;;;;;;;14.10;79.10;;;-151.14;100.00;62537.16;4259451;33;19902;-85
2022/09/30 05:05:59;;;;;;;;;;;14.10;79.10;;;-151.14;100.00;62537.16;4235770;33;19910;-86
2022/09/30 05:08:27;;;;;;;;;;;14.10;79.10;;;-151.14;100.00;62537.16;4235269;33;20002;-86
2022/09/30 05:10:56;;;;;;;;;;;14.10;79.10;;;-151.14;100.00;62537.16;4259212;33;19902;-85
2022/09/30 05:13:25;;;;;;;;;;;14.10;79.00;;;-151.14;100.00;62537.16;4259228;33;19902;-85
2022/09/30 05:15:55;;;;;;;;;;;14.10;78.90;;;-151.14;100.00;62537.16;4235607;33;20304;-85
2022/09/30 05:18:24;;;;;;;;;;;14.10;78.90;;;-151.14;100.00;62537.16;4235163;33;19982;-85
2022/09/30 05:20:53;;;;;;;;;;;14.10;79.10;;;-151.14;100.00;62537.16;4235701;33;20017;-85
2022/09/30 05:23:21;;;;;;;;;;;14.10;78.90;;;-151.14;100.00;62537.16;4235707;33;20221;-85
2022/09/30 05:25:50;;;;;;;;;;;14.10;78.80;;;-151.14;100.00;62537.16;4235470;33;19902;-85
2022/09/30 05:28:19;;;;;;;;;;;14.10;78.90;;;-151.14;100.00;62537.16;4235197;33;19909;-85
2022/09/30 05:30:48;;;;;;;;;;;14.10;78.70;;;-151.14;100.00;62537.16;4258903;33;19957;-85
2022/09/30 05:33:18;;;;;;;;;;;14.20;78.50;;;-151.14;100.00;62537.16;4235611;33;19993;-85
2022/09/30 05:35:47;;;;;;;;;;;14.10;78.40;;;-151.14;100.00;62537.16;4259794;33;19909;-85
2022/09/30 05:38:16;;;;;;;;;;;14.20;78.60;;;-151.14;100.00;62537.16;4258561;33;20220;-85
2022/09/30 05:40:44;;;;;;;;;;;14.20;78.50;;;-151.14;100.00;62537.16;4260056;33;20009;-85
2022/09/30 05:43:13;;;;;;;;;;;14.20;78.50;;;-151.14;100.00;62537.16;4238102;33;19903;-85
2022/09/30 05:45:41;;;;;;;;;;;14.20;78.50;;;-151.14;100.00;62537.16;4237886;33;19994;-86
2022/09/30 05:48:10;;;;;;;;;;;14.20;78.50;;;-151.14;100.00;62537.16;4262082;33;19902;-85
2022/09/30 05:50:40;;;;;;;;;;;14.20;78.30;;;-151.14;100.00;62537.16;4261341;33;19902;-85
2022/09/30 05:53:09;;;;;;;;;;;14.20;78.40;;;-151.14;100.00;62537.16;4237877;33;20001;-85
2022/09/30 05:55:37;;;;;;;;;;;14.20;78.60;;;-151.14;100.00;62537.16;4262243;33;20166;-86
2022/09/30 05:58:06;;;;;;;;;;;14.20;78.60;;;-151.14;100.00;62537.16;4261059;33;19902;-85
2022/09/30 06:00:34;;;;;;;;;;;14.20;78.80;;;-151.14;100.00;62537.16;4261356;33;20292;-86
2022/09/30 06:03:03;;;;;;;;;;;14.20;78.80;;;-151.14;100.00;62537.16;4237979;33;19948;-86
2022/09/30 06:05:31;;;;;;;;;;;14.20;78.70;;;-151.14;100.00;62537.16;4237713;33;20168;-86
2022/09/30 06:08:02;;;;;;;;;;;14.20;78.90;;;-151.14;100.00;62537.16;4237232;33;20129;-85
2022/09/30 06:10:31;;;;;;;;;;;14.20;79.20;;;-151.14;100.00;62537.16;4261141;33;19902;-86
2022/09/30 06:13:00;;;;;;;;;;;14.20;79.00;;;-151.14;100.00;62537.16;4237729;33;20005;-85
2022/09/30 06:15:28;;;;;;;;;;;14.30;78.90;;;-151.14;100.00;62537.16;4237432;33;19986;-85
2022/09/30 06:17:57;;;;;;;;;;;14.20;78.90;;;-151.14;100.00;62537.16;4260784;33;19909;-86
2022/09/30 06:20:26;;;;;;;;;;;14.20;78.80;;;-151.14;100.00;62537.16;4261208;33;20300;-86
2022/09/30 06:22:54;;;;;;;;;;;14.30;78.90;;;-151.14;100.00;62537.16;4237589;33;19903;-86
2022/09/30 06:25:24;;;;;;;;;;;14.30;79.10;;;-151.14;100.00;62537.16;4260809;33;19902;-85
2022/09/30 06:27:53;;;;;;;;;;;14.30;79.10;;;-151.14;100.00;62537.16;4260566;33;19935;-86
2022/09/30 06:30:21;;;;;;;;;;;14.30;78.80;;;-151.14;100.00;62537.16;4237461;33;19957;-85
2022/09/30 06:32:50;;;;;;;;;;;14.30;78.70;;;187.61;100.00;62537.16;4261198;33;19909;-85
2022/09/30 06:35:20;;;;;;;;;;;14.40;78.40;;;-151.14;100.00;62537.16;4260888;33;19906;-85
2022/09/30 06:37:51;;;;;;;;;;;14.40;78.60;;;13.43;100.00;62537.16;4261346;33;20248;-86
2022/09/30 06:40:20;;;;;;;;;;;14.40;78.70;;;13.43;100.00;62537.16;4237380;33;19909;-85
2022/09/30 06:42:49;;;;;;;;;;;14.40;78.80;;;187.61;100.00;62537.16;4237458;33;19944;-86
2022/09/30 06:45:20;;;;;;;;;;;14.40;78.90;;;-151.14;100.00;62537.16;4237164;33;20009;-85
2022/09/30 06:47:50;;;;;;;;;;;14.30;78.90;;;-151.14;100.00;62537.16;4260526;33;20244;-85
2022/09/30 06:50:21;;;;;;;;;;;14.30;79.00;;;-151.14;100.00;62537.16;4260527;33;19902;-85
2022/09/30 06:52:50;;;;;;;;;;;14.30;78.90;;;-151.14;100.00;62537.16;4260327;33;19918;-85
2022/09/30 06:55:18;;;;;;;;;;;14.40;79.10;;;-151.14;100.00;62537.16;4237118;33;19965;-86
2022/09/30 06:57:47;;;;;;;;;;;14.40;79.10;;;15.43;100.00;62537.16;4260311;33;19909;-86
2022/09/30 07:00:17;;;;;;;;;;;14.50;78.90;;;-151.14;100.00;62537.16;4237158;33;20525;-86
2022/09/30 07:02:47;;;;;;;;;;;14.60;78.70;;;-151.14;100.00;62537.16;4237056;33;19902;-85
2022/09/30 07:05:16;;;;;;;;;;;14.60;78.40;;;-151.14;100.00;62537.16;4237056;33;19902;-86
2022/09/30 07:07:44;;;;;;;;;;;14.70;78.20;;;18.08;100.00;62537.16;4260179;33;20371;-86
2022/09/30 07:10:13;;;;;;;;;;;14.70;77.80;;;187.61;100.00;62537.16;4236754;33;19909;-85
2022/09/30 07:12:41;;;;;;;;;;;14.70;77.90;;;-151.14;100.00;62537.16;4261558;33;19910;-86
2022/09/30 07:15:10;;;;;;;;;;;14.70;77.90;;;13.87;100.00;106994.31;4237024;33;20002;-86
2022/09/30 07:17:41;;;;;;;;;;;14.80;77.80;;;-151.14;100.00;62537.16;4251433;33;19903;-86
2022/09/30 07:20:10;;;;;;;;;;;14.80;77.60;;;-151.14;100.00;62537.16;4209046;33;19987;-86
2022/09/30 07:22:39;;;;;;;;;;;14.90;77.40;;;-151.14;100.00;62537.16;4233270;33;19918;-86
2022/09/30 07:25:10;;;;;;;;;;;15.00;77.00;;;-151.14;100.00;62537.16;4208923;33;19910;-86
2022/09/30 07:27:38;;;;;;;;;;;15.00;76.70;;;-151.14;100.00;62537.16;4208294;33;20012;-86
2022/09/30 07:30:08;;;;;;;;;;;15.10;76.70;;;-151.14;100.00;62537.16;4208929;33;19957;-86
2022/09/30 07:32:37;;;;;;;;;;;15.10;76.30;;;-151.14;100.00;62537.16;4233046;33;19971;-86
2022/09/30 07:35:07;;;;;;;;;;;15.20;76.10;;;-151.14;100.00;62537.16;4208746;33;19968;-86
2022/09/30 07:37:36;;;;;;;;;;;15.20;76.00;;;-151.14;100.00;62537.16;4231561;33;19902;-86
2022/09/30 07:40:06;;;;;;;;;;;15.30;75.80;;;-151.14;100.00;62537.16;4208716;33;20134;-85
2022/09/30 07:42:37;;;;;;;;;;;15.30;75.80;;;-151.14;100.00;62537.16;4231997;33;20241;-86
2022/09/30 07:45:07;;;;;;;;;;;15.30;75.70;;;-151.14;100.00;62537.16;4208626;33;19929;-85
2022/09/30 07:47:35;;;;;;;;;;;15.30;75.70;;;-151.14;100.00;62537.16;4208122;33;19910;-86
2022/09/30 07:50:08;;;;;;;;;;;15.30;75.70;;;-151.14;100.00;62537.16;4231870;33;20192;-86
2022/09/30 07:52:37;;;;;;;;;;;15.30;75.70;;;-151.14;100.00;62537.16;4208514;33;19902;-85
2022/09/30 07:55:06;;;;;;;;;;;15.30;75.60;;;-151.14;100.00;62537.16;4231763;33;20233;-86
2022/09/30 07:57:34;;;;;;;;;;;15.30;75.50;;;-151.14;100.00;62537.16;4231300;33;19910;-86
2022/09/30 08:00:03;;;;;;;;;;;15.30;75.50;;;-151.14;100.00;62537.16;4231752;33;20102;-85
2022/09/30 08:02:40;;;;;;;;;;;15.30;75.60;;;-151.14;100.00;62537.16;4232674;33;19903;-86
2022/09/30 08:05:09;;;;;;;;;;;15.40;75.70;;;-151.14;100.00;62537.16;4231670;33;19929;-86
2022/09/30 08:07:40;;;;;;;;;;;15.40;75.60;;;-151.14;100.00;62537.16;4231088;33;19902;-85
2022/09/30 08:10:10;;;;;;;;;;;15.30;75.60;;;-151.14;100.00;62537.16;4231710;33;20002;-86
2022/09/30 08:12:38;;;;;;;;;;;15.30;75.60;;;-151.14;100.00;62537.16;4231561;33;19910;-86
2022/09/30 08:15:08;;;;;;;;;;;15.40;75.60;;;-151.14;100.00;62537.16;4208354;33;19990;-87
2022/09/30 08:17:37;;;;;;;;;;;15.40;75.60;;;-151.14;100.00;62537.16;4207747;33;20002;-86
2022/09/30 08:20:07;;;;;;;;;;;15.40;75.50;;;-151.14;100.00;62537.16;4231604;33;19965;-86
2022/09/30 08:22:37;;;;;;;;;;;15.40;75.40;;;-151.14;100.00;62537.16;4231411;33;19910;-86
2022/09/30 08:25:07;;;;;;;;;;;15.40;75.40;;;-151.14;100.00;62537.16;4208055;33;19906;-86
2022/09/30 08:27:35;;;;;;;;;;;15.40;75.30;;;-151.14;100.00;62537.16;4231890;33;20231;-86
2022/09/30 08:30:05;;;;;;;;;;;15.40;75.40;;;-151.14;100.00;62537.16;4231492;33;19902;-85
2022/09/30 08:32:33;;;;;;;;;;;15.40;75.50;;;-151.14;100.00;62537.16;4231263;33;20313;-86
2022/09/30 08:35:02;;;;;;;;;;;15.30;75.40;;;-151.14;100.00;62537.16;4231326;33;19902;-86
2022/09/30 08:37:31;;;;;;;;;;;15.30;75.60;;;-151.14;100.00;62537.16;4231051;33;19909;-86
2022/09/30 08:40:01;;;;;;;;;;;15.30;75.80;;;-151.14;100.00;62537.16;4208056;33;19966;-85
2022/09/30 08:42:44;;;;;;;;;;;15.30;75.80;;;-151.14;100.00;62537.16;4232145;33;19902;-85
2022/09/30 08:45:26;;;;;;;;;;;15.30;75.80;;;-151.14;100.00;62537.16;4208200;33;19902;-85
2022/09/30 08:48:01;;;;;;;;;;;15.30;75.80;;;-151.14;100.00;62537.16;4207532;33;19909;-85
2022/09/30 08:50:34;;;;;;;;;;;15.20;76.70;;;-151.14;100.00;62537.16;4207913;33;19902;-85
2022/09/30 08:53:05;;;;;;;;;;;15.20;76.00;;;-151.14;100.00;62537.16;4231069;33;19903;-85
2022/09/30 08:55:39;;;;;;;;;;;15.10;76.10;;;-151.14;100.00;62537.16;4254914;33;20002;-85
2022/09/30 08:58:16;;;;;;;;;;;15.20;76.10;;;187.61;100.00;62537.16;4235316;33;19909;-85
2022/09/30 09:00:45;;;;;;;;;;;15.20;76.10;;;-151.14;100.00;62537.16;4235858;33;20214;-85
2022/09/30 09:03:14;;;;;;;;;;;15.20;76.00;;;18.08;100.00;62537.16;4235697;33;19903;-85
2022/09/30 09:05:48;;;;;;;;;;;15.20;76.00;;;-151.14;100.00;62537.16;4259331;33;19903;-85
2022/09/30 09:08:21;;;;;;;;;;;15.30;76.00;;;-151.14;100.00;62537.16;4235244;33;20005;-86
2022/09/30 09:10:54;;;;;;;;;;;15.30;76.00;;;-151.14;100.00;62537.16;4259448;33;19902;-85
2022/09/30 09:13:39;;;;;;;;;;;15.30;75.90;;;-151.14;100.00;62537.16;4235696;33;19994;-85
2022/09/30 09:16:11;;;;;;;;;;;15.30;75.80;;;-151.14;100.00;62537.16;4235461;33;20240;-85
2022/09/30 09:19:03;;;;;;;;;;;15.30;75.80;;;-151.14;100.00;62537.16;4258840;33;19902;-86
2022/09/30 09:21:42;;;;;;;;;;;15.30;75.80;;;-151.14;100.00;62537.16;4230430;33;20245;-85
2022/09/30 09:24:15;;;;;;;;;;;15.30;75.70;;;-151.14;100.00;62537.16;4235616;33;19998;-85
2022/09/30 09:26:45;;;;;;;;;;;15.30;75.70;;;-151.14;100.00;62537.16;4235670;33;20221;-86
2022/09/30 09:29:25;;;;;;;;;;;15.30;75.60;;;-151.14;100.00;62537.16;4235055;33;20008;-86
2022/09/30 09:31:54;;;;;;;;;;;15.30;75.60;;;-151.14;100.00;62537.16;4235776;33;19909;-85
2022/09/30 09:34:24;;;;;;;;;;;15.30;75.60;;;-151.14;100.00;62537.16;4258954;33;19911;-85
2022/09/30 09:37:02;;;;;;;;;;;15.30;75.60;;;-151.14;100.00;62537.16;4235596;33;20016;-86
2022/09/30 09:39:48;;;;;;;;;;;15.30;75.60;;;-151.14;100.00;62537.16;4234959;33;20002;-86
2022/09/30 09:42:31;;;;;;;;;;;15.30;75.60;;;-151.14;100.00;62537.16;4235477;33;19918;-86
2022/09/30 09:45:01;;;;;;;;;;;15.30;75.60;;;-151.14;100.00;62537.16;4235275;33;20121;-85
2022/09/30 09:47:31;;;;;;;;;;;15.30;75.70;;;18.08;100.00;62537.16;4258595;33;20217;-86
2022/09/30 09:50:01;;;;;;;;;;;15.30;75.70;;;-151.14;100.00;62537.16;4235236;33;19990;-85
2022/09/30 09:52:44;;;;;;;;;;;15.30;75.80;;;18.08;100.00;62537.16;4235353;33;19903;-85
2022/09/30 09:55:13;;;;;;;;;;;15.30;75.80;;;-151.14;100.00;62537.16;4235417;33;19902;-86
2022/09/30 09:57:43;;;;;;;;;;;15.30;76.00;;;-151.14;100.00;62537.16;4258658;33;19917;-85
2022/09/30 10:03:00;;;;;;;;;;;15.20;76.10;;;-151.14;100.00;62537.16;4258819;33;19902;-85
2022/09/30 10:05:30;;;;;;;;;;;15.20;76.10;;;187.61;100.00;62537.16;4235222;33;19902;-86
2022/09/30 10:08:15;;;;;;;;;;;15.20;76.20;;;187.61;100.00;62537.16;4258439;33;20239;-85
2022/09/30 10:10:47;;;;;;;;;;;15.20;76.30;;;14.20;100.00;62537.16;4235447;33;19980;-85
2022/09/30 10:13:22;;;;;;;;;;;15.20;76.40;;;-151.14;100.00;62537.16;4235006;33;19909;-85
2022/09/30 10:15:52;;;;;;;;;;;15.10;76.50;;;-151.14;100.00;62537.16;4235220;33;19956;-85
2022/09/30 10:18:25;;;;;;;;;;;15.20;76.60;;;-151.14;100.00;62537.16;4258292;33;19955;-85
2022/09/30 10:20:57;;;;;;;;;;;15.20;76.50;;;-151.14;100.00;62537.16;4247702;33;19909;-85
2022/09/30 10:23:30;;;;;;;;;;;15.20;76.50;;;18.08;100.00;62537.16;4230380;33;19902;-85
2022/09/30 10:26:04;;;;;;;;;;;15.20;76.40;;;-151.14;100.00;62537.16;4207027;33;19910;-85
2022/09/30 10:28:45;;;;;;;;;;;15.20;76.40;;;18.08;100.00;62537.16;4208447;33;19903;-85
2022/09/30 10:31:15;;;;;;;;;;;15.10;76.50;;;-151.14;100.00;62537.16;4209569;33;19922;-85
2022/09/30 10:33:45;;;;;;;;;;;15.20;76.50;;;14.19;100.00;62537.16;4209421;33;19903;-85
2022/09/30 10:36:16;;;;;;;;;;;15.10;76.60;;;-151.14;100.00;62537.16;4209627;33;20237;-85
2022/09/30 10:38:57;;;;;;;;;;;15.10;76.60;;;-151.14;100.00;62537.16;4232132;33;19915;-85
2022/09/30 10:41:27;;;;;;;;;;;15.20;76.50;;;-151.14;100.00;62537.16;4209477;33;19982;-86
2022/09/30 10:43:59;;;;;;;;;;;15.20;76.60;;;-151.14;100.00;62537.16;4209333;33;19922;-85
2022/09/30 10:46:30;;;;;;;;;;;15.10;76.50;;;18.08;100.00;62537.16;4232552;33;19918;-85
2022/09/30 10:48:59;;;;;;;;;;;15.10;76.50;;;187.61;100.00;62537.16;4232109;33;20010;-85
2022/09/30 10:51:35;;;;;;;;;;;15.10;76.60;;;14.19;100.00;62537.16;4209390;33;19903;-85
2022/09/30 10:54:04;;;;;;;;;;;15.10;76.60;;;-151.14;100.00;62537.16;4209264;33;19903;-85
2022/09/30 10:56:44;;;;;;;;;;;15.10;76.70;;;187.61;100.00;62537.16;4232525;33;19982;-85
2022/09/30 10:59:31;;;;;;;;;;;15.10;76.70;;;-151.14;100.00;62537.16;4208602;33;19911;-85
2022/09/30 11:02:06;;;;;;;;;;;15.10;76.80;;;-151.14;100.00;62537.16;4209152;33;20117;-85
2022/09/30 11:04:37;;;;;;;;;;;15.10;76.80;;;-151.14;100.00;62537.16;4232409;33;19967;-85
2022/09/30 11:07:15;;;;;;;;;;;15.10;76.80;;;187.61;100.00;62537.16;4232486;33;19902;-85
2022/09/30 11:09:50;;;;;;;;;;;15.00;76.80;;;-151.14;100.00;62537.16;4208552;33;19903;-85
2022/09/30 11:12:23;;;;;;;;;;;15.10;77.00;;;15.43;100.00;62537.16;4209098;33;19903;-85
2022/09/30 11:15:00;;;;;;;;;;;15.10;77.00;;;-151.14;100.00;62537.16;4208855;33;20198;-85
2022/09/30 11:17:32;;;;;;;;;;;15.10;77.10;;;14.11;100.00;62537.16;4208998;33;19909;-85
2022/09/30 11:20:14;;;;;;;;;;;15.10;77.20;;;14.11;100.00;62537.16;4208977;33;19902;-85